Smit Orleans — CFN5087 — position and weather

sailwx.info

Track history (hours):
 
Tides and Currents Weather Stations Pressure Air Temp Water Temp Dewpoint Dewpoint Depression Visibility Wind Speed Wind Dir Waves Ship Positions

Smit Orleans

Last reported at 2014-Sep-18 11:33 UTC. Time now 2014-Sep-18 11:47 UTC.
Position N 49°17' W 123°04'.

Length 29 m; draft 5.1 m.

Type: . MMSI: 316012721.

Date/timePositionNaut miles runAvg speedWind from/ knotsBaromVisibWave heightAir tempDewpointWater temp
2014-Sep-18 11:33N 49°17' W 123°04'0 0.0
2014-Sep-18 10:33N 49°17' W 123°04'3 2.7
2014-Sep-18 09:33N 49°19' W 123°07'2 2.4
2014-Sep-18 08:33N 49°18' W 123°04'3 2.6
2014-Sep-18 07:33N 49°19' W 123°08'2 2.3
2014-Sep-18 06:34N 49°18' W 123°04'1 0.6
2014-Sep-18 05:33N 49°17' W 123°04'0 0.0
2014-Sep-18 04:33N 49°17' W 123°04'0 0.0
2014-Sep-18 03:33N 49°17' W 123°04'0 0.0
2014-Sep-18 02:33N 49°17' W 123°04'0 0.0
2014-Sep-18 01:33N 49°17' W 123°04'0 0.0
2014-Sep-18 00:33N 49°17' W 123°04'0 0.0
2014-Sep-17 23:33N 49°17' W 123°04'0 0.0
2014-Sep-17 22:33N 49°17' W 123°04'0 0.0
2014-Sep-17 21:33N 49°17' W 123°04'0 0.0
2014-Sep-17 20:33N 49°17' W 123°04'0 0.3
2014-Sep-17 19:33N 49°18' W 123°04'10 9.6
2014-Sep-17 18:33N 49°14' W 123°18'1111.1
2014-Sep-17 17:33N 49°03' W 123°17'1211.9
2014-Sep-17 16:33N 48°54' W 123°05'9 8.6
2014-Sep-17 15:33N 48°45' W 123°05'9 8.6
2014-Sep-17 14:33N 48°39' W 123°14'9 9.4
2014-Sep-17 13:33N 48°30' W 123°10'8 7.9
2014-Sep-17 12:33N 48°23' W 123°15'7 6.5
2014-Sep-17 11:33N 48°20' W 123°24'1 1.2
2014-Sep-17 10:33N 48°21' W 123°25'1110.6
2014-Sep-17 09:33N 48°28' W 123°12'1313.3
2014-Sep-17 08:32N 48°41' W 123°16'1110.9
2014-Sep-17 07:32N 48°52' W 123°20'1010.4
2014-Sep-17 06:33N 49°02' W 123°23'10 9.7
2014-Sep-17 05:33N 49°11' W 123°19'9 9.5
2014-Sep-17 04:33N 49°19' W 123°10'5 4.6
2014-Sep-17 03:33N 49°17' W 123°04'0 0.0
2014-Sep-17 02:33N 49°17' W 123°04'0 0.0
2014-Sep-17 01:33N 49°17' W 123°04'0 0.0
2014-Sep-17 00:33N 49°17' W 123°04'0 0.0
2014-Sep-16 23:33N 49°17' W 123°04'0 0.0
2014-Sep-16 22:33N 49°17' W 123°04'0 0.0
2014-Sep-16 21:33N 49°17' W 123°04'0 0.0
2014-Sep-16 20:33N 49°17' W 123°04'0 0.0
2014-Sep-16 19:33N 49°17' W 123°04'0 0.0
2014-Sep-16 18:33N 49°17' W 123°04'0 0.0
2014-Sep-16 17:33N 49°17' W 123°04'0 0.0
2014-Sep-16 16:33N 49°17' W 123°04'0 0.0
2014-Sep-16 15:33N 49°17' W 123°04'0 0.0
2014-Sep-16 14:33N 49°17' W 123°04'2 2.4
2014-Sep-16 13:33N 49°19' W 123°07'1 0.7
2014-Sep-16 12:33N 49°18' W 123°06'2 1.7
2014-Sep-16 11:33N 49°17' W 123°04'0 0.0
2014-Sep-16 10:33N 49°17' W 123°04'0 0.0
2014-Sep-16 09:33N 49°17' W 123°04'0 0.0
2014-Sep-16 08:33N 49°17' W 123°04'0 0.0
2014-Sep-16 07:33N 49°17' W 123°04'0 0.0
2014-Sep-16 06:33N 49°17' W 123°04'0 0.0
2014-Sep-16 05:33N 49°17' W 123°04'0 0.0
2014-Sep-16 04:33N 49°17' W 123°04'0 0.0
2014-Sep-16 03:33N 49°17' W 123°04'0 0.0
2014-Sep-16 02:33N 49°17' W 123°04'0 0.0
2014-Sep-16 01:33N 49°17' W 123°04'0 0.0
2014-Sep-16 00:33N 49°17' W 123°04'0 0.0
2014-Sep-15 23:33N 49°17' W 123°04'0 0.0
2014-Sep-15 22:33N 49°17' W 123°04'0 0.0
2014-Sep-15 21:33N 49°17' W 123°04'0 0.0
2014-Sep-15 20:33N 49°17' W 123°04'0 0.0
2014-Sep-15 19:33N 49°17' W 123°04'0 0.0
2014-Sep-15 18:33N 49°17' W 123°04'0 0.0
2014-Sep-15 17:33N 49°17' W 123°04'0 0.0
2014-Sep-15 16:33N 49°17' W 123°04'0 0.0
2014-Sep-15 15:33N 49°17' W 123°04'0 0.0
2014-Sep-15 14:33N 49°17' W 123°04'2 2.1
2014-Sep-15 13:33N 49°18' W 123°06'0 0.0
2014-Sep-15 12:33N 49°18' W 123°06'0 0.2
2014-Sep-15 11:33N 49°18' W 123°07'2 2.3
2014-Sep-15 10:33N 49°17' W 123°04'1 0.7
2014-Sep-15 09:33N 49°17' W 123°05'1 0.6
2014-Sep-15 08:33N 49°18' W 123°05'0 0.1
2014-Sep-15 07:33N 49°18' W 123°06'1 1.2
2014-Sep-15 06:34N 49°17' W 123°04'0 0.1
2014-Sep-15 05:33N 49°17' W 123°04'0 0.0
2014-Sep-15 04:33N 49°17' W 123°04'0 0.0
2014-Sep-15 03:33N 49°17' W 123°04'0 0.0
2014-Sep-15 02:33N 49°17' W 123°04'0 0.0
2014-Sep-15 01:33N 49°17' W 123°04'0 0.0
2014-Sep-15 00:33N 49°17' W 123°04'0 0.0
2014-Sep-14 23:33N 49°17' W 123°04'0 0.0
2014-Sep-14 22:33N 49°17' W 123°04'0 0.0
2014-Sep-14 21:33N 49°17' W 123°04'0 0.0
2014-Sep-14 20:33N 49°17' W 123°04'0 0.0
2014-Sep-14 19:33N 49°17' W 123°04'0 0.0
2014-Sep-14 18:33N 49°17' W 123°04'0 0.0
2014-Sep-14 17:33N 49°17' W 123°04'0 0.0
2014-Sep-14 16:33N 49°17' W 123°04'0 0.0
2014-Sep-14 15:33N 49°17' W 123°04'0 0.0
2014-Sep-14 14:33N 49°17' W 123°04'0 0.0
2014-Sep-14 13:33N 49°17' W 123°04'1 0.7
2014-Sep-14 12:33N 49°17' W 123°05'1 0.8
2014-Sep-14 11:34N 49°17' W 123°04'0 0.0
2014-Sep-14 10:33N 49°17' W 123°04'0 0.0
2014-Sep-14 09:33N 49°17' W 123°04'0 0.0
2014-Sep-14 08:33N 49°17' W 123°04'0 0.0
2014-Sep-14 07:33N 49°17' W 123°04'0 0.0
2014-Sep-14 06:33N 49°17' W 123°04'0 0.0
2014-Sep-14 05:33N 49°17' W 123°04'0 0.0
2014-Sep-14 04:33N 49°17' W 123°04'0 0.0
2014-Sep-14 03:33N 49°17' W 123°04'0 0.0
2014-Sep-14 02:33N 49°17' W 123°04'0 0.0
2014-Sep-14 01:33N 49°17' W 123°04'0 0.0
2014-Sep-13 21:34N 49°17' W 123°04'0 0.0
2014-Sep-13 20:33N 49°17' W 123°04'0 0.0
2014-Sep-13 19:33N 49°17' W 123°04'0 0.0
2014-Sep-13 18:33N 49°17' W 123°04'0 0.0
2014-Sep-13 17:33N 49°17' W 123°04'0 0.0
2014-Sep-13 16:33N 49°17' W 123°04'0 0.0
2014-Sep-13 15:33N 49°17' W 123°04'0 0.0
2014-Sep-13 14:33N 49°17' W 123°04'0 0.0
2014-Sep-13 13:33N 49°17' W 123°04'0 0.0
2014-Sep-13 12:33N 49°17' W 123°04'0 0.3
2014-Sep-13 11:34N 49°18' W 123°04'0 0.4
2014-Sep-13 10:33N 49°17' W 123°05'0 0.2
2014-Sep-13 09:34N 49°17' W 123°04'1 0.8
2014-Sep-13 08:33N 49°18' W 123°06'1 0.8
2014-Sep-13 07:33N 49°17' W 123°04'0 0.5
2014-Sep-13 06:33N 49°17' W 123°04'0 0.0
2014-Sep-13 05:33N 49°17' W 123°04'0 0.0
2014-Sep-13 04:33N 49°17' W 123°04'1 0.7
2014-Sep-13 03:33N 49°17' W 123°05'0 0.5
2014-Sep-13 02:33N 49°18' W 123°05'1 1.1
2014-Sep-13 01:33N 49°17' W 123°04'0 0.0
2014-Sep-13 00:33N 49°17' W 123°04'0 0.0
2014-Sep-12 23:33N 49°17' W 123°04'0 0.0
2014-Sep-12 22:33N 49°17' W 123°04'0 0.0
2014-Sep-12 21:33N 49°17' W 123°04'0 0.0
2014-Sep-12 20:33N 49°17' W 123°04'0 0.0
2014-Sep-12 19:33N 49°17' W 123°04'0 0.0
2014-Sep-12 18:33N 49°17' W 123°04'0 0.0
2014-Sep-12 17:33N 49°17' W 123°04'0 0.0
2014-Sep-12 16:33N 49°17' W 123°04'0 0.0
2014-Sep-12 15:33N 49°17' W 123°04'0 0.0
2014-Sep-12 14:33N 49°17' W 123°04'0 0.0
2014-Sep-12 13:33N 49°17' W 123°04'0 0.0
2014-Sep-12 12:33N 49°17' W 123°04'0 0.0
2014-Sep-12 11:33N 49°17' W 123°04'2 2.5
2014-Sep-12 10:34N 49°18' W 123°07'0 0.4
2014-Sep-12 09:34N 49°19' W 123°08'3 2.9
2014-Sep-12 08:34N 49°17' W 123°04'0 0.0
2014-Sep-12 07:33N 49°17' W 123°04'0 0.0
2014-Sep-12 06:34N 49°17' W 123°04'0 0.0
2014-Sep-12 05:34N 49°17' W 123°04'0 0.0
2014-Sep-12 04:34N 49°17' W 123°04'0 0.0
2014-Sep-12 03:33N 49°17' W 123°04'0 0.0
2014-Sep-12 02:34N 49°17' W 123°04'0 0.0
2014-Sep-12 01:34N 49°17' W 123°04'0 0.0
2014-Sep-12 00:34N 49°17' W 123°04'0 0.0
2014-Sep-11 23:34N 49°17' W 123°04'0 0.0
2014-Sep-11 22:34N 49°17' W 123°04'0 0.0
2014-Sep-11 21:34N 49°17' W 123°04'0 0.0
2014-Sep-11 20:34N 49°17' W 123°04'0 0.0
2014-Sep-11 19:34N 49°17' W 123°04'0 0.0
2014-Sep-11 18:34N 49°17' W 123°04'0 0.0
2014-Sep-11 17:34N 49°17' W 123°04'0 0.0
2014-Sep-11 16:34N 49°17' W 123°04'0 0.0
2014-Sep-11 15:34N 49°17' W 123°04'0 0.0
2014-Sep-11 14:34N 49°17' W 123°04'0 0.0
2014-Sep-11 13:34N 49°17' W 123°04'0 0.0
2014-Sep-11 12:34N 49°17' W 123°04'0 0.0
2014-Sep-11 11:34N 49°17' W 123°04'0 0.0
2014-Sep-11 10:34N 49°17' W 123°04'0 0.0
2014-Sep-11 09:34N 49°17' W 123°04'0 0.0
2014-Sep-11 08:34N 49°17' W 123°04'0 0.0
2014-Sep-11 07:34N 49°17' W 123°04'0 0.0
2014-Sep-11 06:33N 49°17' W 123°04'0 0.0
2014-Sep-11 05:34N 49°17' W 123°04'0 0.0
2014-Sep-11 04:34N 49°17' W 123°04'0 0.0
2014-Sep-11 03:34N 49°17' W 123°04'0 0.0
2014-Sep-11 02:34N 49°17' W 123°04'0 0.0
2014-Sep-11 01:34N 49°17' W 123°04'0 0.0
2014-Sep-11 00:34N 49°17' W 123°04'0 0.0
2014-Sep-10 23:34N 49°17' W 123°04'0 0.0
2014-Sep-10 22:34N 49°17' W 123°04'0 0.0
2014-Sep-10 21:34N 49°17' W 123°04'0 0.0
2014-Sep-10 20:33N 49°17' W 123°04'0 0.0
2014-Sep-10 19:34N 49°17' W 123°04'0 0.0
2014-Sep-10 18:34N 49°17' W 123°04'0 0.0
2014-Sep-10 17:34N 49°17' W 123°04'0 0.0
2014-Sep-10 16:33N 49°17' W 123°04'0 0.0
2014-Sep-10 15:34N 49°17' W 123°04'0 0.0
2014-Sep-10 14:33N 49°17' W 123°04'0 0.0
2014-Sep-10 13:34N 49°17' W 123°04'0 0.0
2014-Sep-10 12:34N 49°17' W 123°04'0 0.0
2014-Sep-10 11:34N 49°17' W 123°04'0 0.0
2014-Sep-10 10:33N 49°17' W 123°04'0 0.0
2014-Sep-10 09:34N 49°17' W 123°04'0 0.0
2014-Sep-10 08:33N 49°17' W 123°04'0 0.0
2014-Sep-10 07:34N 49°17' W 123°04'0 0.0
2014-Sep-10 06:33N 49°17' W 123°04'1 0.8
2014-Sep-10 05:34N 49°18' W 123°03'1 0.8
2014-Sep-10 04:34N 49°17' W 123°04'0 0.0
2014-Sep-10 03:34N 49°17' W 123°04'0 0.0
2014-Sep-10 02:34N 49°17' W 123°04'0 0.0
2014-Sep-10 01:33N 49°17' W 123°04'0 0.0
2014-Sep-10 00:34N 49°17' W 123°04'0 0.0
2014-Sep-09 23:34N 49°17' W 123°04'0 0.0
2014-Sep-09 22:34N 49°17' W 123°04'0 0.0
2014-Sep-09 21:33N 49°17' W 123°04'0 0.0
2014-Sep-09 20:34N 49°17' W 123°04'0 0.0
2014-Sep-09 19:34N 49°17' W 123°04'0 0.0
2014-Sep-09 18:34N 49°17' W 123°04'0 0.0
2014-Sep-09 17:34N 49°17' W 123°04'0 0.0
2014-Sep-09 16:34N 49°17' W 123°04'0 0.0
2014-Sep-09 15:33N 49°17' W 123°04'0 0.0
2014-Sep-09 14:34N 49°17' W 123°04'0 0.0
2014-Sep-09 13:33N 49°17' W 123°04'0 0.0
2014-Sep-09 12:34N 49°17' W 123°04'0 0.0
2014-Sep-09 11:34N 49°17' W 123°04'0 0.0
2014-Sep-09 10:34N 49°17' W 123°04'0 0.0
2014-Sep-09 09:34N 49°17' W 123°04'0 0.0
2014-Sep-09 08:34N 49°17' W 123°04'2 1.9
2014-Sep-09 07:34N 49°18' W 123°01'2 1.6
2014-Sep-09 06:33N 49°18' W 123°03'0 0.4
2014-Sep-09 05:34N 49°17' W 123°04'0 0.0
2014-Sep-09 04:34N 49°17' W 123°04'0 0.0
2014-Sep-09 03:34N 49°17' W 123°04'0 0.0
2014-Sep-09 02:34N 49°17' W 123°04'0 0.0
2014-Sep-09 01:34N 49°17' W 123°04'0 0.0
2014-Sep-09 00:33N 49°17' W 123°04'0 0.0
2014-Sep-08 23:34N 49°17' W 123°04'0 0.0
2014-Sep-08 22:34N 49°17' W 123°04'0 0.0
2014-Sep-08 21:33N 49°17' W 123°04'0 0.0
2014-Sep-08 20:34N 49°17' W 123°04'0 0.0
2014-Sep-08 19:34N 49°17' W 123°04'0 0.0
2014-Sep-08 18:34N 49°17' W 123°04'0 0.0
2014-Sep-08 17:34N 49°17' W 123°04'0 0.0
2014-Sep-08 16:34N 49°17' W 123°04'0 0.0
2014-Sep-08 15:33N 49°17' W 123°04'0 0.0
2014-Sep-08 14:34N 49°17' W 123°04'0 0.0
2014-Sep-08 13:34N 49°17' W 123°04'1 1.4
2014-Sep-08 12:33N 49°17' W 123°06'0 0.1
2014-Sep-08 11:33N 49°17' W 123°06'  
Track history (hours):
 
Tides and Currents Weather Stations Pressure Air Temp Water Temp Dewpoint Dewpoint Depression Visibility Wind Speed Wind Dir Waves Ship Positions

Smit Orleans

Last reported at 2014-Sep-18 11:33 UTC. Time now 2014-Sep-18 11:47 UTC.
Position N 49°17' W 123°04'.

Length 29 m; draft 5.1 m.

Type: . MMSI: 316012721.

Date/timePositionNaut miles runAvg speedWind from/ knotsBaromVisibWave heightAir tempDewpointWater temp
2014-Sep-18 11:33N 49°17' W 123°04'0 0.0
2014-Sep-18 10:33N 49°17' W 123°04'3 2.7
2014-Sep-18 09:33N 49°19' W 123°07'2 2.4
2014-Sep-18 08:33N 49°18' W 123°04'3 2.6
2014-Sep-18 07:33N 49°19' W 123°08'2 2.3
2014-Sep-18 06:34N 49°18' W 123°04'1 0.6
2014-Sep-18 05:33N 49°17' W 123°04'0 0.0
2014-Sep-18 04:33N 49°17' W 123°04'0 0.0
2014-Sep-18 03:33N 49°17' W 123°04'0 0.0
2014-Sep-18 02:33N 49°17' W 123°04'0 0.0
2014-Sep-18 01:33N 49°17' W 123°04'0 0.0
2014-Sep-18 00:33N 49°17' W 123°04'0 0.0
2014-Sep-17 23:33N 49°17' W 123°04'0 0.0
2014-Sep-17 22:33N 49°17' W 123°04'0 0.0
2014-Sep-17 21:33N 49°17' W 123°04'0 0.0
2014-Sep-17 20:33N 49°17' W 123°04'0 0.3
2014-Sep-17 19:33N 49°18' W 123°04'10 9.6
2014-Sep-17 18:33N 49°14' W 123°18'1111.1
2014-Sep-17 17:33N 49°03' W 123°17'1211.9
2014-Sep-17 16:33N 48°54' W 123°05'9 8.6
2014-Sep-17 15:33N 48°45' W 123°05'9 8.6
2014-Sep-17 14:33N 48°39' W 123°14'9 9.4
2014-Sep-17 13:33N 48°30' W 123°10'8 7.9
2014-Sep-17 12:33N 48°23' W 123°15'7 6.5
2014-Sep-17 11:33N 48°20' W 123°24'1 1.2
2014-Sep-17 10:33N 48°21' W 123°25'1110.6
2014-Sep-17 09:33N 48°28' W 123°12'1313.3
2014-Sep-17 08:32N 48°41' W 123°16'1110.9
2014-Sep-17 07:32N 48°52' W 123°20'1010.4
2014-Sep-17 06:33N 49°02' W 123°23'10 9.7
2014-Sep-17 05:33N 49°11' W 123°19'9 9.5
2014-Sep-17 04:33N 49°19' W 123°10'5 4.6
2014-Sep-17 03:33N 49°17' W 123°04'0 0.0
2014-Sep-17 02:33N 49°17' W 123°04'0 0.0
2014-Sep-17 01:33N 49°17' W 123°04'0 0.0
2014-Sep-17 00:33N 49°17' W 123°04'0 0.0
2014-Sep-16 23:33N 49°17' W 123°04'0 0.0
2014-Sep-16 22:33N 49°17' W 123°04'0 0.0
2014-Sep-16 21:33N 49°17' W 123°04'0 0.0
2014-Sep-16 20:33N 49°17' W 123°04'0 0.0
2014-Sep-16 19:33N 49°17' W 123°04'0 0.0
2014-Sep-16 18:33N 49°17' W 123°04'0 0.0
2014-Sep-16 17:33N 49°17' W 123°04'0 0.0
2014-Sep-16 16:33N 49°17' W 123°04'0 0.0
2014-Sep-16 15:33N 49°17' W 123°04'0 0.0
2014-Sep-16 14:33N 49°17' W 123°04'2 2.4
2014-Sep-16 13:33N 49°19' W 123°07'1 0.7
2014-Sep-16 12:33N 49°18' W 123°06'2 1.7
2014-Sep-16 11:33N 49°17' W 123°04'0 0.0
2014-Sep-16 10:33N 49°17' W 123°04'0 0.0
2014-Sep-16 09:33N 49°17' W 123°04'0 0.0
2014-Sep-16 08:33N 49°17' W 123°04'0 0.0
2014-Sep-16 07:33N 49°17' W 123°04'0 0.0
2014-Sep-16 06:33N 49°17' W 123°04'0 0.0
2014-Sep-16 05:33N 49°17' W 123°04'0 0.0
2014-Sep-16 04:33N 49°17' W 123°04'0 0.0
2014-Sep-16 03:33N 49°17' W 123°04'0 0.0
2014-Sep-16 02:33N 49°17' W 123°04'0 0.0
2014-Sep-16 01:33N 49°17' W 123°04'0 0.0
2014-Sep-16 00:33N 49°17' W 123°04'0 0.0
2014-Sep-15 23:33N 49°17' W 123°04'0 0.0
2014-Sep-15 22:33N 49°17' W 123°04'0 0.0
2014-Sep-15 21:33N 49°17' W 123°04'0 0.0
2014-Sep-15 20:33N 49°17' W 123°04'0 0.0
2014-Sep-15 19:33N 49°17' W 123°04'0 0.0
2014-Sep-15 18:33N 49°17' W 123°04'0 0.0
2014-Sep-15 17:33N 49°17' W 123°04'0 0.0
2014-Sep-15 16:33N 49°17' W 123°04'0 0.0
2014-Sep-15 15:33N 49°17' W 123°04'0 0.0
2014-Sep-15 14:33N 49°17' W 123°04'2 2.1
2014-Sep-15 13:33N 49°18' W 123°06'0 0.0
2014-Sep-15 12:33N 49°18' W 123°06'0 0.2
2014-Sep-15 11:33N 49°18' W 123°07'2 2.3
2014-Sep-15 10:33N 49°17' W 123°04'1 0.7
2014-Sep-15 09:33N 49°17' W 123°05'1 0.6
2014-Sep-15 08:33N 49°18' W 123°05'0 0.1
2014-Sep-15 07:33N 49°18' W 123°06'1 1.2
2014-Sep-15 06:34N 49°17' W 123°04'0 0.1
2014-Sep-15 05:33N 49°17' W 123°04'0 0.0
2014-Sep-15 04:33N 49°17' W 123°04'0 0.0
2014-Sep-15 03:33N 49°17' W 123°04'0 0.0
2014-Sep-15 02:33N 49°17' W 123°04'0 0.0
2014-Sep-15 01:33N 49°17' W 123°04'0 0.0
2014-Sep-15 00:33N 49°17' W 123°04'0 0.0
2014-Sep-14 23:33N 49°17' W 123°04'0 0.0
2014-Sep-14 22:33N 49°17' W 123°04'0 0.0
2014-Sep-14 21:33N 49°17' W 123°04'0 0.0
2014-Sep-14 20:33N 49°17' W 123°04'0 0.0
2014-Sep-14 19:33N 49°17' W 123°04'0 0.0
2014-Sep-14 18:33N 49°17' W 123°04'0 0.0
2014-Sep-14 17:33N 49°17' W 123°04'0 0.0
2014-Sep-14 16:33N 49°17' W 123°04'0 0.0
2014-Sep-14 15:33N 49°17' W 123°04'0 0.0
2014-Sep-14 14:33N 49°17' W 123°04'0 0.0
2014-Sep-14 13:33N 49°17' W 123°04'1 0.7
2014-Sep-14 12:33N 49°17' W 123°05'1 0.8
2014-Sep-14 11:34N 49°17' W 123°04'0 0.0
2014-Sep-14 10:33N 49°17' W 123°04'0 0.0
2014-Sep-14 09:33N 49°17' W 123°04'0 0.0
2014-Sep-14 08:33N 49°17' W 123°04'0 0.0
2014-Sep-14 07:33N 49°17' W 123°04'0 0.0
2014-Sep-14 06:33N 49°17' W 123°04'0 0.0
2014-Sep-14 05:33N 49°17' W 123°04'0 0.0
2014-Sep-14 04:33N 49°17' W 123°04'0 0.0
2014-Sep-14 03:33N 49°17' W 123°04'0 0.0
2014-Sep-14 02:33N 49°17' W 123°04'0 0.0
2014-Sep-14 01:33N 49°17' W 123°04'0 0.0
2014-Sep-13 21:34N 49°17' W 123°04'0 0.0
2014-Sep-13 20:33N 49°17' W 123°04'0 0.0
2014-Sep-13 19:33N 49°17' W 123°04'0 0.0
2014-Sep-13 18:33N 49°17' W 123°04'0 0.0
2014-Sep-13 17:33N 49°17' W 123°04'0 0.0
2014-Sep-13 16:33N 49°17' W 123°04'0 0.0
2014-Sep-13 15:33N 49°17' W 123°04'0 0.0
2014-Sep-13 14:33N 49°17' W 123°04'0 0.0
2014-Sep-13 13:33N 49°17' W 123°04'0 0.0
2014-Sep-13 12:33N 49°17' W 123°04'0 0.3
2014-Sep-13 11:34N 49°18' W 123°04'0 0.4
2014-Sep-13 10:33N 49°17' W 123°05'0 0.2
2014-Sep-13 09:34N 49°17' W 123°04'1 0.8
2014-Sep-13 08:33N 49°18' W 123°06'1 0.8
2014-Sep-13 07:33N 49°17' W 123°04'0 0.5
2014-Sep-13 06:33N 49°17' W 123°04'0 0.0
2014-Sep-13 05:33N 49°17' W 123°04'0 0.0
2014-Sep-13 04:33N 49°17' W 123°04'1 0.7
2014-Sep-13 03:33N 49°17' W 123°05'0 0.5
2014-Sep-13 02:33N 49°18' W 123°05'1 1.1
2014-Sep-13 01:33N 49°17' W 123°04'0 0.0
2014-Sep-13 00:33N 49°17' W 123°04'0 0.0
2014-Sep-12 23:33N 49°17' W 123°04'0 0.0
2014-Sep-12 22:33N 49°17' W 123°04'0 0.0
2014-Sep-12 21:33N 49°17' W 123°04'0 0.0
2014-Sep-12 20:33N 49°17' W 123°04'0 0.0
2014-Sep-12 19:33N 49°17' W 123°04'0 0.0
2014-Sep-12 18:33N 49°17' W 123°04'0 0.0
2014-Sep-12 17:33N 49°17' W 123°04'0 0.0
2014-Sep-12 16:33N 49°17' W 123°04'0 0.0
2014-Sep-12 15:33N 49°17' W 123°04'0 0.0
2014-Sep-12 14:33N 49°17' W 123°04'0 0.0
2014-Sep-12 13:33N 49°17' W 123°04'0 0.0
2014-Sep-12 12:33N 49°17' W 123°04'0 0.0
2014-Sep-12 11:33N 49°17' W 123°04'2 2.5
2014-Sep-12 10:34N 49°18' W 123°07'0 0.4
2014-Sep-12 09:34N 49°19' W 123°08'3 2.9
2014-Sep-12 08:34N 49°17' W 123°04'0 0.0
2014-Sep-12 07:33N 49°17' W 123°04'0 0.0
2014-Sep-12 06:34N 49°17' W 123°04'0 0.0
2014-Sep-12 05:34N 49°17' W 123°04'0 0.0
2014-Sep-12 04:34N 49°17' W 123°04'0 0.0
2014-Sep-12 03:33N 49°17' W 123°04'0 0.0
2014-Sep-12 02:34N 49°17' W 123°04'0 0.0
2014-Sep-12 01:34N 49°17' W 123°04'0 0.0
2014-Sep-12 00:34N 49°17' W 123°04'0 0.0
2014-Sep-11 23:34N 49°17' W 123°04'0 0.0
2014-Sep-11 22:34N 49°17' W 123°04'0 0.0
2014-Sep-11 21:34N 49°17' W 123°04'0 0.0
2014-Sep-11 20:34N 49°17' W 123°04'0 0.0
2014-Sep-11 19:34N 49°17' W 123°04'0 0.0
2014-Sep-11 18:34N 49°17' W 123°04'0 0.0
2014-Sep-11 17:34N 49°17' W 123°04'0 0.0
2014-Sep-11 16:34N 49°17' W 123°04'0 0.0
2014-Sep-11 15:34N 49°17' W 123°04'0 0.0
2014-Sep-11 14:34N 49°17' W 123°04'0 0.0
2014-Sep-11 13:34N 49°17' W 123°04'0 0.0
2014-Sep-11 12:34N 49°17' W 123°04'0 0.0
2014-Sep-11 11:34N 49°17' W 123°04'0 0.0
2014-Sep-11 10:34N 49°17' W 123°04'0 0.0
2014-Sep-11 09:34N 49°17' W 123°04'0 0.0
2014-Sep-11 08:34N 49°17' W 123°04'0 0.0
2014-Sep-11 07:34N 49°17' W 123°04'0 0.0
2014-Sep-11 06:33N 49°17' W 123°04'0 0.0
2014-Sep-11 05:34N 49°17' W 123°04'0 0.0
2014-Sep-11 04:34N 49°17' W 123°04'0 0.0
2014-Sep-11 03:34N 49°17' W 123°04'0 0.0
2014-Sep-11 02:34N 49°17' W 123°04'0 0.0
2014-Sep-11 01:34N 49°17' W 123°04'0 0.0
2014-Sep-11 00:34N 49°17' W 123°04'0 0.0
2014-Sep-10 23:34N 49°17' W 123°04'0 0.0
2014-Sep-10 22:34N 49°17' W 123°04'0 0.0
2014-Sep-10 21:34N 49°17' W 123°04'0 0.0
2014-Sep-10 20:33N 49°17' W 123°04'0 0.0
2014-Sep-10 19:34N 49°17' W 123°04'0 0.0
2014-Sep-10 18:34N 49°17' W 123°04'0 0.0
2014-Sep-10 17:34N 49°17' W 123°04'0 0.0
2014-Sep-10 16:33N 49°17' W 123°04'0 0.0
2014-Sep-10 15:34N 49°17' W 123°04'0 0.0
2014-Sep-10 14:33N 49°17' W 123°04'0 0.0
2014-Sep-10 13:34N 49°17' W 123°04'0 0.0
2014-Sep-10 12:34N 49°17' W 123°04'0 0.0
2014-Sep-10 11:34N 49°17' W 123°04'0 0.0
2014-Sep-10 10:33N 49°17' W 123°04'0 0.0
2014-Sep-10 09:34N 49°17' W 123°04'0 0.0
2014-Sep-10 08:33N 49°17' W 123°04'0 0.0
2014-Sep-10 07:34N 49°17' W 123°04'0 0.0
2014-Sep-10 06:33N 49°17' W 123°04'1 0.8
2014-Sep-10 05:34N 49°18' W 123°03'1 0.8
2014-Sep-10 04:34N 49°17' W 123°04'0 0.0
2014-Sep-10 03:34N 49°17' W 123°04'0 0.0
2014-Sep-10 02:34N 49°17' W 123°04'0 0.0
2014-Sep-10 01:33N 49°17' W 123°04'0 0.0
2014-Sep-10 00:34N 49°17' W 123°04'0 0.0
2014-Sep-09 23:34N 49°17' W 123°04'0 0.0
2014-Sep-09 22:34N 49°17' W 123°04'0 0.0
2014-Sep-09 21:33N 49°17' W 123°04'0 0.0
2014-Sep-09 20:34N 49°17' W 123°04'0 0.0
2014-Sep-09 19:34N 49°17' W 123°04'0 0.0
2014-Sep-09 18:34N 49°17' W 123°04'0 0.0
2014-Sep-09 17:34N 49°17' W 123°04'0 0.0
2014-Sep-09 16:34N 49°17' W 123°04'0 0.0
2014-Sep-09 15:33N 49°17' W 123°04'0 0.0
2014-Sep-09 14:34N 49°17' W 123°04'0 0.0
2014-Sep-09 13:33N 49°17' W 123°04'0 0.0
2014-Sep-09 12:34N 49°17' W 123°04'0 0.0
2014-Sep-09 11:34N 49°17' W 123°04'0 0.0
2014-Sep-09 10:34N 49°17' W 123°04'0 0.0
2014-Sep-09 09:34N 49°17' W 123°04'0 0.0
2014-Sep-09 08:34N 49°17' W 123°04'2 1.9
2014-Sep-09 07:34N 49°18' W 123°01'2 1.6
2014-Sep-09 06:33N 49°18' W 123°03'0 0.4
2014-Sep-09 05:34N 49°17' W 123°04'0 0.0
2014-Sep-09 04:34N 49°17' W 123°04'0 0.0
2014-Sep-09 03:34N 49°17' W 123°04'0 0.0
2014-Sep-09 02:34N 49°17' W 123°04'0 0.0
2014-Sep-09 01:34N 49°17' W 123°04'0 0.0
2014-Sep-09 00:33N 49°17' W 123°04'0 0.0
2014-Sep-08 23:34N 49°17' W 123°04'0 0.0
2014-Sep-08 22:34N 49°17' W 123°04'0 0.0
2014-Sep-08 21:33N 49°17' W 123°04'0 0.0
2014-Sep-08 20:34N 49°17' W 123°04'0 0.0
2014-Sep-08 19:34N 49°17' W 123°04'0 0.0
2014-Sep-08 18:34N 49°17' W 123°04'0 0.0
2014-Sep-08 17:34N 49°17' W 123°04'0 0.0
2014-Sep-08 16:34N 49°17' W 123°04'0 0.0
2014-Sep-08 15:33N 49°17' W 123°04'0 0.0
2014-Sep-08 14:34N 49°17' W 123°04'0 0.0
2014-Sep-08 13:34N 49°17' W 123°04'1 1.4
2014-Sep-08 12:33N 49°17' W 123°06'0 0.1
2014-Sep-08 11:33N 49°17' W 123°06'  

Dump ship's entire track history